sensor_id;sensor_type;location;lat;lon;timestamp;pressure;altitude;pressure_sealevel;temperature;humidity
8253;BME280;61313;48.396;10.008;2024-03-07T00:02:14;96603.59;;;6.84;78.06
8253;BME280;61313;48.396;10.008;2024-03-07T00:04:42;96611.44;;;6.84;77.17
8253;BME280;61313;48.396;10.008;2024-03-07T00:07:08;96610.50;;;6.87;76.84
8253;BME280;61313;48.396;10.008;2024-03-07T00:09:34;96614.88;;;6.86;77.40
8253;BME280;61313;48.396;10.008;2024-03-07T00:12:01;96609.41;;;6.95;76.03
8253;BME280;61313;48.396;10.008;2024-03-07T00:14:26;96612.59;;;6.72;77.27
8253;BME280;61313;48.396;10.008;2024-03-07T00:16:58;96609.13;;;6.73;76.88
8253;BME280;61313;48.396;10.008;2024-03-07T00:19:26;96604.88;;;6.68;76.58
8253;BME280;61313;48.396;10.008;2024-03-07T00:21:53;96606.41;;;6.78;76.65
8253;BME280;61313;48.396;10.008;2024-03-07T00:24:22;96612.66;;;6.71;75.85
8253;BME280;61313;48.396;10.008;2024-03-07T00:26:48;96611.22;;;6.59;76.74
8253;BME280;61313;48.396;10.008;2024-03-07T00:29:19;96603.06;;;6.71;76.06
8253;BME280;61313;48.396;10.008;2024-03-07T00:31:45;96614.59;;;6.63;76.15
8253;BME280;61313;48.396;10.008;2024-03-07T00:34:12;96606.69;;;6.66;76.18
8253;BME280;61313;48.396;10.008;2024-03-07T00:36:40;96607.63;;;6.63;75.69
8253;BME280;61313;48.396;10.008;2024-03-07T00:39:05;96605.06;;;6.62;75.47
8253;BME280;61313;48.396;10.008;2024-03-07T00:41:33;96604.06;;;6.66;75.17
8253;BME280;61313;48.396;10.008;2024-03-07T00:43:59;96600.81;;;6.57;75.35
8253;BME280;61313;48.396;10.008;2024-03-07T00:46:24;96600.06;;;6.52;74.98
8253;BME280;61313;48.396;10.008;2024-03-07T00:48:50;96605.97;;;6.23;75.81
8253;BME280;61313;48.396;10.008;2024-03-07T00:51:15;96600.06;;;6.52;74.89
8253;BME280;61313;48.396;10.008;2024-03-07T00:53:40;96597.28;;;6.58;74.74
8253;BME280;61313;48.396;10.008;2024-03-07T00:56:06;96596.44;;;6.22;75.98
8253;BME280;61313;48.396;10.008;2024-03-07T00:58:31;96592.78;;;6.31;75.56
8253;BME280;61313;48.396;10.008;2024-03-07T01:00:57;96593.66;;;6.30;75.74
8253;BME280;61313;48.396;10.008;2024-03-07T01:03:22;96589.81;;;6.45;74.45
8253;BME280;61313;48.396;10.008;2024-03-07T01:05:49;96590.19;;;6.31;74.65
8253;BME280;61313;48.396;10.008;2024-03-07T01:08:14;96593.31;;;6.45;74.72
8253;BME280;61313;48.396;10.008;2024-03-07T01:10:40;96587.75;;;6.59;74.18
8253;BME280;61313;48.396;10.008;2024-03-07T01:13:06;96588.72;;;6.55;73.73
8253;BME280;61313;48.396;10.008;2024-03-07T01:15:34;96590.16;;;6.67;73.07
8253;BME280;61313;48.396;10.008;2024-03-07T01:17:59;96600.31;;;6.42;73.84
8253;BME280;61313;48.396;10.008;2024-03-07T01:20:24;96589.69;;;6.49;73.88
8253;BME280;61313;48.396;10.008;2024-03-07T01:22:51;96593.31;;;6.44;73.27
8253;BME280;61313;48.396;10.008;2024-03-07T01:25:17;96586.56;;;6.35;73.48
8253;BME280;61313;48.396;10.008;2024-03-07T01:27:42;96584.91;;;6.32;73.32
8253;BME280;61313;48.396;10.008;2024-03-07T01:30:08;96576.63;;;6.17;73.75
8253;BME280;61313;48.396;10.008;2024-03-07T01:32:34;96583.44;;;6.21;74.11
8253;BME280;61313;48.396;10.008;2024-03-07T01:34:59;96581.81;;;6.17;74.78
8253;BME280;61313;48.396;10.008;2024-03-07T01:37:25;96578.13;;;6.25;73.89
8253;BME280;61313;48.396;10.008;2024-03-07T01:39:52;96570.09;;;5.97;74.67
8253;BME280;61313;48.396;10.008;2024-03-07T01:42:17;96565.53;;;5.68;75.47
8253;BME280;61313;48.396;10.008;2024-03-07T01:44:42;96570.78;;;6.05;74.63
8253;BME280;61313;48.396;10.008;2024-03-07T01:47:09;96560.91;;;6.20;74.50
8253;BME280;61313;48.396;10.008;2024-03-07T01:49:34;96572.50;;;6.42;74.24
8253;BME280;61313;48.396;10.008;2024-03-07T01:52:01;96566.13;;;6.54;73.65
8253;BME280;61313;48.396;10.008;2024-03-07T01:54:28;96564.66;;;6.44;74.00
8253;BME280;61313;48.396;10.008;2024-03-07T01:56:54;96565.47;;;6.46;73.84
8253;BME280;61313;48.396;10.008;2024-03-07T01:59:21;96561.34;;;6.01;74.24
8253;BME280;61313;48.396;10.008;2024-03-07T02:01:47;96564.47;;;5.77;75.77
8253;BME280;61313;48.396;10.008;2024-03-07T02:04:13;96553.97;;;5.81;76.08
8253;BME280;61313;48.396;10.008;2024-03-07T02:06:39;96546.88;;;5.86;75.57
8253;BME280;61313;48.396;10.008;2024-03-07T02:09:05;96552.50;;;6.07;75.03
8253;BME280;61313;48.396;10.008;2024-03-07T02:11:31;96556.00;;;6.06;75.27
8253;BME280;61313;48.396;10.008;2024-03-07T02:13:57;96556.22;;;5.97;75.99
8253;BME280;61313;48.396;10.008;2024-03-07T02:16:22;96559.63;;;6.00;75.82
8253;BME280;61313;48.396;10.008;2024-03-07T02:18:48;96548.22;;;6.04;75.24
8253;BME280;61313;48.396;10.008;2024-03-07T02:21:15;96552.47;;;5.69;76.45
8253;BME280;61313;48.396;10.008;2024-03-07T02:23:40;96547.31;;;5.66;76.85
8253;BME280;61313;48.396;10.008;2024-03-07T02:26:06;96543.38;;;5.87;76.06
8253;BME280;61313;48.396;10.008;2024-03-07T02:28:33;96543.84;;;6.06;76.04
8253;BME280;61313;48.396;10.008;2024-03-07T02:31:00;96545.38;;;6.15;74.87
8253;BME280;61313;48.396;10.008;2024-03-07T02:33:25;96532.34;;;5.76;76.84
8253;BME280;61313;48.396;10.008;2024-03-07T02:35:51;96536.16;;;5.61;77.17
8253;BME280;61313;48.396;10.008;2024-03-07T02:38:16;96528.88;;;5.77;76.92
8253;BME280;61313;48.396;10.008;2024-03-07T02:40:43;96533.91;;;5.83;76.58
8253;BME280;61313;48.396;10.008;2024-03-07T02:43:08;96527.72;;;5.89;76.55
8253;BME280;61313;48.396;10.008;2024-03-07T02:45:33;96529.31;;;5.96;75.63
8253;BME280;61313;48.396;10.008;2024-03-07T02:47:59;96533.03;;;5.86;75.34
8253;BME280;61313;48.396;10.008;2024-03-07T02:50:24;96532.78;;;5.97;74.82
8253;BME280;61313;48.396;10.008;2024-03-07T02:52:50;96535.38;;;5.98;74.74
8253;BME280;61313;48.396;10.008;2024-03-07T02:55:17;96529.16;;;6.02;74.01
8253;BME280;61313;48.396;10.008;2024-03-07T02:57:44;96520.59;;;5.99;74.48
8253;BME280;61313;48.396;10.008;2024-03-07T03:00:11;96517.03;;;6.03;73.83
8253;BME280;61313;48.396;10.008;2024-03-07T03:02:46;96517.22;;;5.92;74.08
8253;BME280;61313;48.396;10.008;2024-03-07T03:05:13;96526.16;;;5.82;74.49
8253;BME280;61313;48.396;10.008;2024-03-07T03:07:40;96528.50;;;5.92;74.08
8253;BME280;61313;48.396;10.008;2024-03-07T03:10:06;96524.44;;;5.81;74.39
8253;BME280;61313;48.396;10.008;2024-03-07T03:12:37;96523.66;;;5.77;72.67
8253;BME280;61313;48.396;10.008;2024-03-07T03:15:04;96519.72;;;5.59;73.26
8253;BME280;61313;48.396;10.008;2024-03-07T03:17:30;96520.47;;;5.64;72.78
8253;BME280;61313;48.396;10.008;2024-03-07T03:19:56;96522.19;;;5.65;71.93
8253;BME280;61313;48.396;10.008;2024-03-07T03:22:22;96520.44;;;5.66;71.98
8253;BME280;61313;48.396;10.008;2024-03-07T03:24:47;96519.91;;;5.50;71.57
8253;BME280;61313;48.396;10.008;2024-03-07T03:27:12;96519.59;;;5.65;71.60
8253;BME280;61313;48.396;10.008;2024-03-07T03:29:39;96516.97;;;5.65;72.04
8253;BME280;61313;48.396;10.008;2024-03-07T03:32:05;96520.09;;;5.42;73.00
8253;BME280;61313;48.396;10.008;2024-03-07T03:34:32;96520.91;;;5.46;72.19
8253;BME280;61313;48.396;10.008;2024-03-07T03:36:59;96522.59;;;5.47;72.72
8253;BME280;61313;48.396;10.008;2024-03-07T03:39:24;96521.00;;;5.41;72.75
8253;BME280;61313;48.396;10.008;2024-03-07T03:41:52;96520.84;;;5.47;72.73
8253;BME280;61313;48.396;10.008;2024-03-07T03:44:17;96519.91;;;5.50;72.31
8253;BME280;61313;48.396;10.008;2024-03-07T03:46:43;96515.78;;;5.41;72.42
8253;BME280;61313;48.396;10.008;2024-03-07T03:49:09;96518.13;;;5.54;72.28
8253;BME280;61313;48.396;10.008;2024-03-07T03:51:35;96518.53;;;5.34;71.94
8253;BME280;61313;48.396;10.008;2024-03-07T03:54:01;96519.91;;;5.50;71.37
8253;BME280;61313;48.396;10.008;2024-03-07T03:56:26;96513.13;;;5.43;71.53
8253;BME280;61313;48.396;10.008;2024-03-07T03:58:52;96520.19;;;5.38;71.11
8253;BME280;61313;48.396;10.008;2024-03-07T04:01:17;96510.53;;;5.43;70.99
8253;BME280;61313;48.396;10.008;2024-03-07T04:03:43;96517.00;;;5.25;71.17
8253;BME280;61313;48.396;10.008;2024-03-07T04:06:12;96515.91;;;5.35;71.02
8253;BME280;61313;48.396;10.008;2024-03-07T04:08:37;96521.41;;;5.21;71.28
8253;BME280;61313;48.396;10.008;2024-03-07T04:11:03;96511.63;;;5.33;70.12
8253;BME280;61313;48.396;10.008;2024-03-07T04:13:29;96511.66;;;5.31;70.39
8253;BME280;61313;48.396;10.008;2024-03-07T04:15:55;96513.41;;;5.30;70.05
8253;BME280;61313;48.396;10.008;2024-03-07T04:18:21;96505.38;;;5.41;70.00
8253;BME280;61313;48.396;10.008;2024-03-07T04:20:46;96503.00;;;5.29;70.51
8253;BME280;61313;48.396;10.008;2024-03-07T04:23:11;96507.44;;;5.25;69.38
8253;BME280;61313;48.396;10.008;2024-03-07T04:25:37;96501.16;;;5.36;69.83
8253;BME280;61313;48.396;10.008;2024-03-07T04:28:03;96494.88;;;5.46;69.33
8253;BME280;61313;48.396;10.008;2024-03-07T04:30:28;96497.81;;;5.29;69.52
8253;BME280;61313;48.396;10.008;2024-03-07T04:32:54;96507.50;;;4.80;70.98
8253;BME280;61313;48.396;10.008;2024-03-07T04:35:19;96504.38;;;5.06;70.66
8253;BME280;61313;48.396;10.008;2024-03-07T04:37:45;96511.28;;;5.07;70.47
8253;BME280;61313;48.396;10.008;2024-03-07T04:40:11;96510.81;;;5.29;69.82
8253;BME280;61313;48.396;10.008;2024-03-07T04:42:43;96502.34;;;5.21;69.52
8253;BME280;61313;48.396;10.008;2024-03-07T04:45:09;96505.13;;;4.68;70.20
8253;BME280;61313;48.396;10.008;2024-03-07T04:47:36;96501.09;;;4.97;70.04
8253;BME280;61313;48.396;10.008;2024-03-07T04:50:02;96505.66;;;4.84;70.36
8253;BME280;61313;48.396;10.008;2024-03-07T04:52:28;96506.66;;;4.80;70.26
8253;BME280;61313;48.396;10.008;2024-03-07T04:54:53;96499.47;;;4.91;69.95
8253;BME280;61313;48.396;10.008;2024-03-07T04:57:19;96508.31;;;4.82;70.55
8253;BME280;61313;48.396;10.008;2024-03-07T04:59:44;96504.38;;;5.06;69.49
8253;BME280;61313;48.396;10.008;2024-03-07T05:02:09;96503.56;;;5.03;69.07
8253;BME280;61313;48.396;10.008;2024-03-07T05:04:35;96508.91;;;4.97;69.08
8253;BME280;61313;48.396;10.008;2024-03-07T05:07:01;96508.31;;;4.36;71.36
8253;BME280;61313;48.396;10.008;2024-03-07T05:09:27;96516.13;;;4.82;70.18
8253;BME280;61313;48.396;10.008;2024-03-07T05:11:54;96511.59;;;4.92;69.26
8253;BME280;61313;48.396;10.008;2024-03-07T05:14:20;96518.94;;;5.15;68.27
8253;BME280;61313;48.396;10.008;2024-03-07T05:16:47;96510.09;;;4.79;68.50
8253;BME280;61313;48.396;10.008;2024-03-07T05:19:30;96517.53;;;4.04;71.87
8253;BME280;61313;48.396;10.008;2024-03-07T05:21:56;96511.81;;;4.35;69.61
8253;BME280;61313;48.396;10.008;2024-03-07T05:24:21;96523.00;;;4.37;70.33
8253;BME280;61313;48.396;10.008;2024-03-07T05:26:47;96516.28;;;4.73;69.44
8253;BME280;61313;48.396;10.008;2024-03-07T05:29:13;96514.88;;;4.55;70.36
8253;BME280;61313;48.396;10.008;2024-03-07T05:31:38;96512.19;;;4.60;69.70
8253;BME280;61313;48.396;10.008;2024-03-07T05:34:12;96514.81;;;4.10;71.13
8253;BME280;61313;48.396;10.008;2024-03-07T05:36:38;96513.13;;;4.08;71.70
8253;BME280;61313;48.396;10.008;2024-03-07T05:39:10;96516.03;;;4.40;70.20
8253;BME280;61313;48.396;10.008;2024-03-07T05:41:37;96515.22;;;4.37;70.72
8253;BME280;61313;48.396;10.008;2024-03-07T05:44:02;96516.47;;;4.62;69.80
8253;BME280;61313;48.396;10.008;2024-03-07T05:46:28;96517.09;;;4.30;69.81
8253;BME280;61313;48.396;10.008;2024-03-07T05:48:53;96517.66;;;4.46;70.39
8253;BME280;61313;48.396;10.008;2024-03-07T05:51:22;96519.63;;;4.33;71.07
8253;BME280;61313;48.396;10.008;2024-03-07T05:53:48;96523.91;;;4.34;70.94
8253;BME280;61313;48.396;10.008;2024-03-07T05:56:14;96521.44;;;4.28;71.29
8253;BME280;61313;48.396;10.008;2024-03-07T05:58:39;96519.25;;;4.03;72.32
8253;BME280;61313;48.396;10.008;2024-03-07T06:01:05;96521.53;;;4.22;71.75
8253;BME280;61313;48.396;10.008;2024-03-07T06:03:30;96515.47;;;4.70;70.21
8253;BME280;61313;48.396;10.008;2024-03-07T06:05:55;96518.03;;;4.73;69.80
8253;BME280;61313;48.396;10.008;2024-03-07T06:08:21;96525.94;;;4.66;69.46
8253;BME280;61313;48.396;10.008;2024-03-07T06:10:47;96517.31;;;4.64;69.34
8253;BME280;61313;48.396;10.008;2024-03-07T06:13:15;96521.06;;;4.50;70.92
8253;BME280;61313;48.396;10.008;2024-03-07T06:15:44;96515.53;;;4.68;69.18
8253;BME280;61313;48.396;10.008;2024-03-07T06:18:10;96520.84;;;4.60;69.31
8253;BME280;61313;48.396;10.008;2024-03-07T06:20:40;96521.75;;;4.58;70.05
8253;BME280;61313;48.396;10.008;2024-03-07T06:23:07;96522.75;;;4.01;71.92
8253;BME280;61313;48.396;10.008;2024-03-07T06:25:33;96528.31;;;4.31;71.71
8253;BME280;61313;48.396;10.008;2024-03-07T06:28:02;96519.06;;;4.64;70.55
8253;BME280;61313;48.396;10.008;2024-03-07T06:30:35;96518.03;;;4.24;71.32
8253;BME280;61313;48.396;10.008;2024-03-07T06:33:02;96529.91;;;4.39;71.36
8253;BME280;61313;48.396;10.008;2024-03-07T06:35:27;96525.69;;;4.32;70.73
8253;BME280;61313;48.396;10.008;2024-03-07T06:37:53;96521.91;;;3.99;72.00
8253;BME280;61313;48.396;10.008;2024-03-07T06:40:18;96519.88;;;4.18;71.95
8253;BME280;61313;48.396;10.008;2024-03-07T06:42:48;96521.53;;;4.23;71.41
8253;BME280;61313;48.396;10.008;2024-03-07T06:45:13;96524.13;;;4.23;71.74
8253;BME280;61313;48.396;10.008;2024-03-07T06:47:38;96521.94;;;3.97;71.37
8253;BME280;61313;48.396;10.008;2024-03-07T06:50:04;96527.44;;;3.79;73.69
8253;BME280;61313;48.396;10.008;2024-03-07T06:52:34;96527.84;;;4.09;72.03
8253;BME280;61313;48.396;10.008;2024-03-07T06:54:59;96525.97;;;4.15;71.75
8253;BME280;61313;48.396;10.008;2024-03-07T06:57:24;96525.50;;;4.43;70.57
8253;BME280;61313;48.396;10.008;2024-03-07T06:59:50;96538.50;;;4.43;70.81
8253;BME280;61313;48.396;10.008;2024-03-07T07:02:15;96530.72;;;4.41;71.08
8253;BME280;61313;48.396;10.008;2024-03-07T07:04:41;96533.09;;;4.04;72.05
8253;BME280;61313;48.396;10.008;2024-03-07T07:07:10;96531.91;;;4.23;71.55
8253;BME280;61313;48.396;10.008;2024-03-07T07:09:38;96528.72;;;4.06;72.35
8253;BME280;61313;48.396;10.008;2024-03-07T07:12:03;96530.72;;;3.89;72.25
8253;BME280;61313;48.396;10.008;2024-03-07T07:14:29;96527.16;;;3.94;72.54
8253;BME280;61313;48.396;10.008;2024-03-07T07:16:55;96528.34;;;3.75;73.27
8253;BME280;61313;48.396;10.008;2024-03-07T07:19:21;96528.47;;;3.66;74.12
8253;BME280;61313;48.396;10.008;2024-03-07T07:21:47;96530.47;;;3.47;73.11
8253;BME280;61313;48.396;10.008;2024-03-07T07:24:14;96532.94;;;3.56;74.33
8253;BME280;61313;48.396;10.008;2024-03-07T07:26:40;96525.84;;;3.69;73.22
8253;BME280;61313;48.396;10.008;2024-03-07T07:29:06;96524.06;;;3.71;73.32
8253;BME280;61313;48.396;10.008;2024-03-07T07:31:32;96521.34;;;3.80;73.20
8253;BME280;61313;48.396;10.008;2024-03-07T07:33:57;96525.94;;;3.64;73.91
8253;BME280;61313;48.396;10.008;2024-03-07T07:36:23;96525.16;;;3.57;74.65
8253;BME280;61313;48.396;10.008;2024-03-07T07:38:48;96525.84;;;3.69;73.84
8253;BME280;61313;48.396;10.008;2024-03-07T07:41:14;96531.97;;;3.66;73.59
8253;BME280;61313;48.396;10.008;2024-03-07T07:43:41;96522.25;;;3.15;75.66
8253;BME280;61313;48.396;10.008;2024-03-07T07:46:06;96520.59;;;3.10;76.13
8253;BME280;61313;48.396;10.008;2024-03-07T07:48:32;96528.53;;;3.63;74.59
8253;BME280;61313;48.396;10.008;2024-03-07T07:50:58;96513.47;;;3.85;74.15
8253;BME280;61313;48.396;10.008;2024-03-07T07:53:23;96512.41;;;3.98;73.13
8253;BME280;61313;48.396;10.008;2024-03-07T07:55:48;96511.44;;;4.05;72.62
8253;BME280;61313;48.396;10.008;2024-03-07T07:58:14;96515.72;;;4.08;73.27
8253;BME280;61313;48.396;10.008;2024-03-07T08:00:40;96519.28;;;4.02;73.69
8253;BME280;61313;48.396;10.008;2024-03-07T08:03:09;96512.13;;;4.15;72.91
8253;BME280;61313;48.396;10.008;2024-03-07T08:05:36;96506.69;;;4.30;72.08
8253;BME280;61313;48.396;10.008;2024-03-07T08:08:06;96508.66;;;4.65;71.02
8253;BME280;61313;48.396;10.008;2024-03-07T08:10:34;96511.13;;;4.23;72.01
8253;BME280;61313;48.396;10.008;2024-03-07T08:13:00;96513.75;;;4.22;72.24
8253;BME280;61313;48.396;10.008;2024-03-07T08:15:27;96513.13;;;4.08;73.16
8253;BME280;61313;48.396;10.008;2024-03-07T08:17:57;96500.06;;;4.11;72.91
8253;BME280;61313;48.396;10.008;2024-03-07T08:20:23;96504.28;;;4.18;73.62
8253;BME280;61313;48.396;10.008;2024-03-07T08:22:51;96501.81;;;4.10;73.81
8253;BME280;61313;48.396;10.008;2024-03-07T08:25:21;96499.69;;;4.34;72.46
8253;BME280;61313;48.396;10.008;2024-03-07T08:27:49;96507.25;;;3.96;72.70
8253;BME280;61313;48.396;10.008;2024-03-07T08:30:15;96503.56;;;4.10;73.34
8253;BME280;61313;48.396;10.008;2024-03-07T08:32:43;96500.69;;;4.27;74.71
8253;BME280;61313;48.396;10.008;2024-03-07T08:35:09;96500.19;;;4.98;71.99
8253;BME280;61313;48.396;10.008;2024-03-07T08:37:36;96499.03;;;4.71;71.77
8253;BME280;61313;48.396;10.008;2024-03-07T08:40:02;96493.31;;;4.95;70.79
8253;BME280;61313;48.396;10.008;2024-03-07T08:42:32;96494.06;;;4.57;71.60
8253;BME280;61313;48.396;10.008;2024-03-07T08:45:02;96497.03;;;4.37;72.26
8253;BME280;61313;48.396;10.008;2024-03-07T08:47:36;96498.28;;;4.64;71.77
8253;BME280;61313;48.396;10.008;2024-03-07T08:50:03;96487.22;;;4.53;72.01
8253;BME280;61313;48.396;10.008;2024-03-07T08:52:34;96491.34;;;4.63;71.90
8253;BME280;61313;48.396;10.008;2024-03-07T08:55:02;96485.22;;;4.67;72.05
8253;BME280;61313;48.396;10.008;2024-03-07T08:57:28;96486.13;;;4.64;71.96
8253;BME280;61313;48.396;10.008;2024-03-07T08:59:53;96480.84;;;4.69;71.74
8253;BME280;61313;48.396;10.008;2024-03-07T09:02:19;96491.50;;;4.55;72.90
8253;BME280;61313;48.396;10.008;2024-03-07T09:04:44;96485.38;;;4.58;72.51
8253;BME280;61313;48.396;10.008;2024-03-07T09:07:11;96482.00;;;4.98;71.50
8253;BME280;61313;48.396;10.008;2024-03-07T09:09:38;96487.22;;;4.53;72.42
8253;BME280;61313;48.396;10.008;2024-03-07T09:12:04;96482.31;;;4.82;71.97
8253;BME280;61313;48.396;10.008;2024-03-07T09:14:30;96494.50;;;4.34;72.99
8253;BME280;61313;48.396;10.008;2024-03-07T09:16:56;96493.97;;;4.13;72.19
8253;BME280;61313;48.396;10.008;2024-03-07T09:19:22;96486.84;;;4.24;72.41
8253;BME280;61313;48.396;10.008;2024-03-07T09:21:52;96480.78;;;4.72;72.28
8253;BME280;61313;48.396;10.008;2024-03-07T09:24:18;96480.56;;;4.38;72.35
8253;BME280;61313;48.396;10.008;2024-03-07T09:26:50;96475.13;;;4.52;71.74
8253;BME280;61313;48.396;10.008;2024-03-07T09:29:17;96468.03;;;5.03;70.24
8253;BME280;61313;48.396;10.008;2024-03-07T09:31:44;96476.88;;;4.95;70.66
8253;BME280;61313;48.396;10.008;2024-03-07T09:34:09;96475.41;;;4.81;71.21
8253;BME280;61313;48.396;10.008;2024-03-07T09:36:34;96461.72;;;5.14;70.06
8253;BME280;61313;48.396;10.008;2024-03-07T09:39:00;96475.47;;;5.20;70.45
8253;BME280;61313;48.396;10.008;2024-03-07T09:41:26;96478.50;;;4.55;71.10
8253;BME280;61313;48.396;10.008;2024-03-07T09:43:52;96471.00;;;4.40;71.20
8253;BME280;61313;48.396;10.008;2024-03-07T09:46:22;96472.09;;;4.73;71.04
8253;BME280;61313;48.396;10.008;2024-03-07T09:48:49;96477.63;;;4.56;71.95
8253;BME280;61313;48.396;10.008;2024-03-07T09:51:19;96474.53;;;4.81;71.57
8253;BME280;61313;48.396;10.008;2024-03-07T09:53:48;96466.84;;;4.76;70.46
8253;BME280;61313;48.396;10.008;2024-03-07T09:56:17;96474.53;;;4.37;72.00
8253;BME280;61313;48.396;10.008;2024-03-07T09:58:49;96468.25;;;4.48;72.61
8253;BME280;61313;48.396;10.008;2024-03-07T10:01:15;96471.78;;;4.43;71.84
8253;BME280;61313;48.396;10.008;2024-03-07T10:03:44;96475.38;;;4.38;71.80
8253;BME280;61313;48.396;10.008;2024-03-07T10:06:12;96467.66;;;4.33;72.09
8253;BME280;61313;48.396;10.008;2024-03-07T10:08:39;96473.47;;;4.46;71.18
8253;BME280;61313;48.396;10.008;2024-03-07T10:11:06;96467.50;;;4.42;73.13
8253;BME280;61313;48.396;10.008;2024-03-07T10:13:34;96470.31;;;4.30;72.63
8253;BME280;61313;48.396;10.008;2024-03-07T10:16:01;96475.94;;;4.54;71.56
8253;BME280;61313;48.396;10.008;2024-03-07T10:18:30;96475.22;;;4.45;71.71
8253;BME280;61313;48.396;10.008;2024-03-07T10:20:57;96475.44;;;4.35;71.86
8253;BME280;61313;48.396;10.008;2024-03-07T10:23:23;96471.19;;;4.74;71.40
8253;BME280;61313;48.396;10.008;2024-03-07T10:25:50;96467.59;;;4.81;71.43
8253;BME280;61313;48.396;10.008;2024-03-07T10:28:16;96469.66;;;4.65;71.34
8253;BME280;61313;48.396;10.008;2024-03-07T10:30:43;96468.50;;;4.80;71.58
8253;BME280;61313;48.396;10.008;2024-03-07T10:33:13;96473.69;;;4.35;71.86
8253;BME280;61313;48.396;10.008;2024-03-07T10:35:39;96473.34;;;4.54;71.50
8253;BME280;61313;48.396;10.008;2024-03-07T10:38:05;96470.09;;;4.42;72.24
8253;BME280;61313;48.396;10.008;2024-03-07T10:40:32;96472.47;;;4.53;71.36
8253;BME280;61313;48.396;10.008;2024-03-07T10:42:58;96465.34;;;4.64;71.30
8253;BME280;61313;48.396;10.008;2024-03-07T10:45:29;96452.97;;;4.77;71.09
8253;BME280;61313;48.396;10.008;2024-03-07T10:47:56;96452.59;;;5.35;68.46
8253;BME280;61313;48.396;10.008;2024-03-07T10:56:42;96451.69;;;5.36;68.46
8253;BME280;61313;48.396;10.008;2024-03-07T10:59:17;96445.47;;;5.80;65.82
8253;BME280;61313;48.396;10.008;2024-03-07T11:04:30;96439.91;;;5.58;67.50
8253;BME280;61313;48.396;10.008;2024-03-07T11:06:56;96444.75;;;5.73;66.59
8253;BME280;61313;48.396;10.008;2024-03-07T11:09:24;96443.44;;;5.17;67.75
8253;BME280;61313;48.396;10.008;2024-03-07T11:11:55;96440.34;;;5.40;68.76
8253;BME280;61313;48.396;10.008;2024-03-07T11:14:22;96431.16;;;5.62;68.21
8253;BME280;61313;48.396;10.008;2024-03-07T11:16:48;96435.66;;;5.54;68.45
8253;BME280;61313;48.396;10.008;2024-03-07T11:19:32;96425.72;;;5.34;68.67
8253;BME280;61313;48.396;10.008;2024-03-07T11:22:02;96430.34;;;5.60;68.35
8253;BME280;61313;48.396;10.008;2024-03-07T11:24:39;96416.16;;;5.72;67.55
8253;BME280;61313;48.396;10.008;2024-03-07T11:27:04;96414.63;;;5.99;67.23
8253;BME280;61313;48.396;10.008;2024-03-07T11:29:39;96416.09;;;6.09;66.39
8253;BME280;61313;48.396;10.008;2024-03-07T11:32:15;96406.00;;;6.30;65.40
8253;BME280;61313;48.396;10.008;2024-03-07T11:34:42;96407.53;;;6.04;66.60
8253;BME280;61313;48.396;10.008;2024-03-07T11:37:17;96406.09;;;5.94;66.70
8253;BME280;61313;48.396;10.008;2024-03-07T11:39:49;96405.53;;;5.80;66.98
8253;BME280;61313;48.396;10.008;2024-03-07T11:44:58;96396.66;;;6.23;65.78
8253;BME280;61313;48.396;10.008;2024-03-07T11:47:35;96388.09;;;6.18;65.74
8253;BME280;61313;48.396;10.008;2024-03-07T11:50:04;96389.75;;;6.22;65.74
8253;BME280;61313;48.396;10.008;2024-03-07T11:52:33;96376.41;;;6.32;65.55
8253;BME280;61313;48.396;10.008;2024-03-07T11:55:02;96379.34;;;6.20;65.97
8253;BME280;61313;48.396;10.008;2024-03-07T11:57:31;96380.88;;;6.27;66.40
8253;BME280;61313;48.396;10.008;2024-03-07T12:00:00;96375.53;;;6.33;66.87
8253;BME280;61313;48.396;10.008;2024-03-07T12:02:36;96373.25;;;6.52;66.18
8253;BME280;61313;48.396;10.008;2024-03-07T12:05:03;96368.97;;;6.19;66.67
8253;BME280;61313;48.396;10.008;2024-03-07T12:07:30;96370.56;;;6.24;67.24
8253;BME280;61313;48.396;10.008;2024-03-07T12:09:56;96371.69;;;5.80;68.50
8253;BME280;61313;48.396;10.008;2024-03-07T12:12:22;96370.16;;;5.72;69.25
8253;BME280;61313;48.396;10.008;2024-03-07T12:14:48;96365.91;;;5.68;69.58
8253;BME280;61313;48.396;10.008;2024-03-07T12:17:17;96367.75;;;5.65;69.84
8253;BME280;61313;48.396;10.008;2024-03-07T12:19:43;96359.13;;;5.61;69.89
8253;BME280;61313;48.396;10.008;2024-03-07T12:22:09;96370.31;;;5.29;71.69
8253;BME280;61313;48.396;10.008;2024-03-07T12:24:38;96357.28;;;5.66;70.63
8253;BME280;61313;48.396;10.008;2024-03-07T12:27:09;96361.78;;;5.60;70.96
8253;BME280;61313;48.396;10.008;2024-03-07T12:29:37;96362.69;;;5.59;70.71
8253;BME280;61313;48.396;10.008;2024-03-07T12:32:08;96370.16;;;5.72;70.76
8253;BME280;61313;48.396;10.008;2024-03-07T12:34:36;96357.78;;;5.81;69.59
8253;BME280;61313;48.396;10.008;2024-03-07T12:37:06;96360.94;;;5.93;70.08
8253;BME280;61313;48.396;10.008;2024-03-07T12:39:33;96357.59;;;5.88;69.34
8253;BME280;61313;48.396;10.008;2024-03-07T12:42:11;96363.47;;;5.62;69.68
8253;BME280;61313;48.396;10.008;2024-03-07T12:44:43;96341.06;;;5.89;70.02
8253;BME280;61313;48.396;10.008;2024-03-07T12:47:12;96354.19;;;5.85;69.66
8253;BME280;61313;48.396;10.008;2024-03-07T12:49:42;96350.94;;;5.77;68.41
8253;BME280;61313;48.396;10.008;2024-03-07T12:52:08;96349.88;;;5.49;70.44
8253;BME280;61313;48.396;10.008;2024-03-07T12:54:34;96347.44;;;5.78;70.10
8253;BME280;61313;48.396;10.008;2024-03-07T12:57:02;96339.81;;;6.04;68.84
8253;BME280;61313;48.396;10.008;2024-03-07T12:59:30;96341.09;;;6.21;69.57
8253;BME280;61313;48.396;10.008;2024-03-07T13:01:55;96336.22;;;6.40;68.23
8253;BME280;61313;48.396;10.008;2024-03-07T13:04:22;96341.66;;;6.33;68.07
8253;BME280;61313;48.396;10.008;2024-03-07T13:06:50;96340.03;;;6.28;68.56
8253;BME280;61313;48.396;10.008;2024-03-07T13:09:16;96339.91;;;6.01;69.11
8253;BME280;61313;48.396;10.008;2024-03-07T13:11:41;96341.44;;;6.10;68.78
8253;BME280;61313;48.396;10.008;2024-03-07T13:14:12;96344.88;;;5.76;70.55
8253;BME280;61313;48.396;10.008;2024-03-07T13:16:37;96337.94;;;6.09;69.33
8253;BME280;61313;48.396;10.008;2024-03-07T13:19:02;96334.81;;;5.97;70.20
8253;BME280;61313;48.396;10.008;2024-03-07T13:21:33;96340.47;;;5.78;70.98